createdAt,value
2019-05-21T00:00:11.696Z,50.08
2019-05-21T00:02:37.843Z,50.17
2019-05-21T00:05:06.073Z,39.83
2019-05-21T00:07:32.226Z,47.27
2019-05-21T00:09:58.450Z,55.92
2019-05-21T00:12:24.596Z,46.80
2019-05-21T00:14:50.769Z,44.10
2019-05-21T00:17:16.980Z,30.02
2019-05-21T00:19:43.089Z,36.50
2019-05-21T00:22:09.312Z,34.05
2019-05-21T00:24:35.590Z,32.05
2019-05-21T00:27:01.803Z,28.45
2019-05-21T00:30:05.695Z,26.50
2019-05-21T00:33:09.535Z,16.77
2019-05-21T00:36:14.087Z,19.80
2019-05-21T00:39:17.612Z,25.25
2019-05-21T00:41:59.125Z,17.50
2019-05-21T00:44:26.281Z,20.65
2019-05-21T00:46:52.480Z,14.98
2019-05-21T00:49:18.700Z,19.23
2019-05-21T00:51:44.856Z,19.30
2019-05-21T00:54:10.967Z,20.17
2019-05-21T00:56:37.093Z,19.82
2019-05-21T00:59:03.352Z,19.23
2019-05-21T01:01:29.461Z,21.45
2019-05-21T01:03:55.571Z,28.55
2019-05-21T01:06:21.696Z,32.83
2019-05-21T01:08:47.816Z,35.60
2019-05-21T01:11:13.959Z,29.45
2019-05-21T01:13:40.300Z,32.42
2019-05-21T01:16:06.561Z,44.03
2019-05-21T01:18:32.760Z,44.20
2019-05-21T01:20:58.918Z,30.92
2019-05-21T01:23:25.106Z,31.82
2019-05-21T01:25:51.334Z,39.45
2019-05-21T01:28:17.478Z,41.98
2019-05-21T01:30:43.985Z,39.27
2019-05-21T01:33:10.532Z,50.85
2019-05-21T01:35:36.739Z,45.55
2019-05-21T01:38:03.000Z,42.73
2019-05-21T01:40:29.120Z,66.05
2019-05-21T01:42:55.336Z,62.15
2019-05-21T01:45:21.450Z,64.65
2019-05-21T01:47:47.694Z,56.70
2019-05-21T01:50:13.808Z,56.00
2019-05-21T01:52:39.934Z,59.50
2019-05-21T01:55:06.446Z,45.52
2019-05-21T01:57:32.658Z,43.63
2019-05-21T01:59:59.142Z,57.70
2019-05-21T02:02:25.313Z,68.25
2019-05-21T02:04:51.663Z,52.30
2019-05-21T02:07:17.867Z,62.20
2019-05-21T02:09:59.284Z,53.35
2019-05-21T02:12:25.992Z,52.75
2019-05-21T02:14:52.177Z,50.00
2019-05-21T02:17:18.390Z,55.73
2019-05-21T02:19:44.612Z,52.80
2019-05-21T02:22:10.714Z,36.85
2019-05-21T02:24:36.867Z,41.68
2019-05-21T02:27:03.085Z,50.10
2019-05-21T02:29:29.216Z,40.65
2019-05-21T02:31:55.339Z,38.55
2019-05-21T02:34:21.576Z,39.08
2019-05-21T02:36:47.783Z,52.62
2019-05-21T02:39:13.922Z,38.20
2019-05-21T02:41:40.143Z,41.00
2019-05-21T02:44:06.387Z,37.83
2019-05-21T02:46:32.611Z,48.10
2019-05-21T02:48:58.816Z,56.75
2019-05-21T02:51:25.098Z,45.88
2019-05-21T02:53:51.276Z,42.05
2019-05-21T02:56:17.546Z,55.45
2019-05-21T02:58:43.857Z,57.65
2019-05-21T03:01:28.794Z,36.03
2019-05-21T03:03:55.013Z,52.13
2019-05-21T03:06:21.235Z,40.78
2019-05-21T03:08:47.558Z,51.73
2019-05-21T03:11:14.076Z,38.45
2019-05-21T03:13:40.430Z,51.58
2019-05-21T03:16:06.649Z,47.60
2019-05-21T03:18:33.322Z,49.10
2019-05-21T03:20:59.517Z,45.20
2019-05-21T03:23:26.042Z,39.83
2019-05-21T03:25:52.295Z,35.68
2019-05-21T03:28:18.621Z,38.02
2019-05-21T03:30:44.879Z,42.85
2019-05-21T03:33:11.153Z,43.45
2019-05-21T03:35:37.348Z,35.98
2019-05-21T03:38:03.649Z,40.30
2019-05-21T03:40:29.788Z,38.45
2019-05-21T03:42:56.260Z,37.70
2019-05-21T03:45:22.458Z,30.52
2019-05-21T03:47:48.588Z,38.35
2019-05-21T03:50:14.991Z,28.45
2019-05-21T03:52:41.121Z,33.88
2019-05-21T03:55:07.656Z,35.15
2019-05-21T03:57:33.962Z,30.32
2019-05-21T04:00:00.486Z,33.28
2019-05-21T04:02:26.866Z,26.50
2019-05-21T04:04:53.137Z,22.58
2019-05-21T04:07:19.298Z,25.68
2019-05-21T04:09:45.439Z,27.00
2019-05-21T04:12:12.744Z,33.78
2019-05-21T04:14:41.033Z,29.75
2019-05-21T04:17:27.302Z,25.55
2019-05-21T04:19:53.427Z,25.55
2019-05-21T04:22:19.753Z,33.90
2019-05-21T04:24:45.977Z,30.05
2019-05-21T04:27:13.194Z,26.97
2019-05-21T04:29:39.549Z,24.85
2019-05-21T04:32:05.687Z,36.53
2019-05-21T04:34:31.923Z,34.95
2019-05-21T04:37:09.947Z,38.25
2019-05-21T04:39:27.014Z,39.85
2019-05-21T04:41:53.464Z,33.42
2019-05-21T04:44:19.698Z,33.73
2019-05-21T04:46:46.620Z,34.98
2019-05-21T04:49:12.861Z,34.10
2019-05-21T04:51:39.094Z,31.93
2019-05-21T04:54:05.211Z,27.60
2019-05-21T04:56:31.504Z,26.57
2019-05-21T04:58:57.812Z,37.33
2019-05-21T05:01:24.088Z,26.05
2019-05-21T05:03:50.303Z,35.88
2019-05-21T05:06:16.435Z,25.95
2019-05-21T05:08:42.656Z,24.92
2019-05-21T05:11:08.995Z,36.88
2019-05-21T05:13:35.149Z,29.35
2019-05-21T05:16:04.280Z,23.40
2019-05-21T05:18:30.921Z,29.42
2019-05-21T05:20:57.091Z,26.07
2019-05-21T05:23:23.237Z,27.35
2019-05-21T05:25:49.447Z,23.18
2019-05-21T05:28:15.576Z,28.23
2019-05-21T05:30:41.805Z,28.73
2019-05-21T05:33:07.955Z,21.95
2019-05-21T05:35:34.310Z,27.60
2019-05-21T05:38:00.553Z,17.65
2019-05-21T05:40:27.188Z,25.05
2019-05-21T05:42:53.441Z,23.38
2019-05-21T05:45:19.821Z,14.58
2019-05-21T05:47:45.987Z,22.17
2019-05-21T05:50:14.620Z,22.77
2019-05-21T05:52:40.795Z,18.48
2019-05-21T05:55:07.201Z,20.88
2019-05-21T05:57:33.409Z,18.25
2019-05-21T05:59:59.508Z,17.42
2019-05-21T06:02:25.636Z,16.97
2019-05-21T06:04:51.750Z,20.15
2019-05-21T06:07:17.860Z,19.57
2019-05-21T06:09:43.999Z,16.42
2019-05-21T06:12:10.324Z,19.73
2019-05-21T06:14:36.540Z,17.42
2019-05-21T06:17:02.925Z,18.75
2019-05-21T06:19:29.090Z,20.10
2019-05-21T06:21:55.198Z,24.37
2019-05-21T06:24:21.311Z,20.20
2019-05-21T06:26:47.415Z,17.75
2019-05-21T06:29:13.598Z,19.67
2019-05-21T06:31:39.731Z,8.63
2019-05-21T06:34:05.808Z,16.12
2019-05-21T06:36:31.924Z,16.60
2019-05-21T06:38:58.030Z,15.63
2019-05-21T06:41:24.245Z,16.67
2019-05-21T06:43:50.426Z,17.20
2019-05-21T06:46:16.540Z,17.17
2019-05-21T06:48:42.942Z,19.27
2019-05-21T06:51:09.088Z,19.80
2019-05-21T06:53:35.173Z,18.75
2019-05-21T06:56:01.688Z,19.87
2019-05-21T06:58:27.804Z,16.73
2019-05-21T07:00:53.904Z,16.48
2019-05-21T07:03:20.018Z,18.85
2019-05-21T07:05:58.449Z,16.50
2019-05-21T07:08:14.221Z,17.37
2019-05-21T07:10:40.324Z,19.45
2019-05-21T07:13:06.412Z,17.25
2019-05-21T07:15:32.753Z,18.55
2019-05-21T07:17:58.962Z,17.77
2019-05-21T07:20:25.357Z,24.52
2019-05-21T07:22:51.545Z,22.77
2019-05-21T07:25:17.863Z,19.87
2019-05-21T07:27:44.060Z,19.95
2019-05-21T07:30:12.151Z,19.20
2019-05-21T07:32:38.361Z,20.50
2019-05-21T07:35:04.676Z,15.08
2019-05-21T07:37:30.874Z,19.77
2019-05-21T07:39:56.953Z,23.90
2019-05-21T07:42:23.059Z,21.75
2019-05-21T07:44:49.159Z,27.50
2019-05-21T07:47:15.301Z,25.68
2019-05-21T07:49:41.522Z,19.77
2019-05-21T07:52:07.817Z,24.37
2019-05-21T07:54:33.907Z,24.92
2019-05-21T07:57:00.134Z,22.37
2019-05-21T07:59:26.252Z,29.75
2019-05-21T08:01:54.355Z,30.92
2019-05-21T08:04:20.583Z,22.55
2019-05-21T08:06:46.713Z,30.08
2019-05-21T08:09:14.689Z,26.33
2019-05-21T08:11:41.014Z,28.90
2019-05-21T08:14:07.126Z,26.30
2019-05-21T08:16:33.305Z,22.67
2019-05-21T08:18:59.521Z,16.23
2019-05-21T08:21:25.612Z,28.65
2019-05-21T08:23:51.805Z,23.85
2019-05-21T08:26:17.927Z,22.15
2019-05-21T08:28:44.388Z,23.40
2019-05-21T08:31:10.593Z,22.85
2019-05-21T08:33:36.699Z,23.22
2019-05-21T08:36:02.984Z,25.80
2019-05-21T08:38:29.278Z,26.35
2019-05-21T08:40:55.543Z,26.48
2019-05-21T08:43:22.323Z,28.35
2019-05-21T08:45:48.579Z,28.83
2019-05-21T08:48:14.831Z,25.05
2019-05-21T08:50:41.072Z,21.90
2019-05-21T08:53:07.202Z,21.85
2019-05-21T08:55:33.500Z,15.28
2019-05-21T08:58:07.133Z,17.02
2019-05-21T09:00:27.898Z,23.52
2019-05-21T09:02:54.085Z,20.95
2019-05-21T09:05:20.211Z,20.50
2019-05-21T09:07:52.308Z,25.65
2019-05-21T09:10:15.083Z,21.35
2019-05-21T09:12:41.249Z,18.80
2019-05-21T09:15:08.363Z,16.27
2019-05-21T09:17:34.557Z,13.58
2019-05-21T09:20:00.659Z,12.45
2019-05-21T09:22:26.765Z,23.30
2019-05-21T09:24:52.856Z,18.10
2019-05-21T09:27:19.176Z,15.03
2019-05-21T09:29:45.468Z,11.43
2019-05-21T09:32:31.694Z,13.60
2019-05-21T09:34:57.879Z,13.40
2019-05-21T09:37:24.008Z,16.15
2019-05-21T09:39:50.181Z,19.98
2019-05-21T09:42:16.368Z,18.85
2019-05-21T09:44:42.489Z,19.00
2019-05-21T09:47:08.668Z,18.82
2019-05-21T09:49:34.891Z,18.48
2019-05-21T09:52:04.166Z,15.50
2019-05-21T09:54:30.375Z,16.07
2019-05-21T09:56:56.529Z,11.20
2019-05-21T09:59:27.187Z,11.03
2019-05-21T10:02:13.449Z,22.00
2019-05-21T10:04:39.649Z,14.90
2019-05-21T10:07:05.751Z,14.05
2019-05-21T10:09:32.037Z,15.00
2019-05-21T10:11:58.227Z,14.47
2019-05-21T10:14:24.434Z,12.88
2019-05-21T10:16:50.614Z,11.50
2019-05-21T10:19:16.840Z,14.30
2019-05-21T10:21:43.024Z,12.00
2019-05-21T10:24:09.228Z,15.20
2019-05-21T10:26:35.417Z,15.58
2019-05-21T10:29:01.818Z,21.87
2019-05-21T10:31:28.012Z,20.72
2019-05-21T10:33:57.208Z,14.60
2019-05-21T10:36:23.595Z,17.70
2019-05-21T10:38:49.918Z,18.42
2019-05-21T10:41:16.114Z,12.98
2019-05-21T10:43:43.443Z,12.53
2019-05-21T10:46:09.703Z,12.73
2019-05-21T10:48:35.794Z,8.30
2019-05-21T10:51:04.519Z,13.45
2019-05-21T10:53:30.712Z,26.97
2019-05-21T10:55:57.006Z,14.38
2019-05-21T10:58:23.075Z,15.50
2019-05-21T11:00:51.202Z,13.50
2019-05-21T11:03:21.949Z,12.58
2019-05-21T11:05:50.119Z,11.97
2019-05-21T11:08:25.089Z,9.58
2019-05-21T11:10:44.298Z,11.12
2019-05-21T11:13:10.442Z,10.98
2019-05-21T11:15:36.847Z,10.88
2019-05-21T11:18:11.813Z,12.65
2019-05-21T11:20:31.516Z,14.03
2019-05-21T11:22:58.448Z,16.65
2019-05-21T11:25:24.829Z,13.38
2019-05-21T11:27:51.220Z,16.10
2019-05-21T11:30:37.267Z,12.28
2019-05-21T11:33:03.456Z,13.22
2019-05-21T11:35:29.762Z,15.32
2019-05-21T11:37:55.950Z,14.87
2019-05-21T11:40:25.988Z,14.25
2019-05-21T11:42:53.190Z,14.18
2019-05-21T11:45:31.570Z,17.30
2019-05-21T11:47:47.981Z,15.72
2019-05-21T11:50:16.105Z,14.90
2019-05-21T11:52:42.313Z,15.23
2019-05-21T11:55:08.921Z,15.53
2019-05-21T11:57:35.094Z,15.08
2019-05-21T12:00:01.777Z,11.95
2019-05-21T12:02:27.942Z,12.35
2019-05-21T12:04:54.044Z,20.35
2019-05-21T12:07:20.255Z,19.75
2019-05-21T12:09:46.378Z,13.85
2019-05-21T12:12:12.554Z,14.30
2019-05-21T12:14:38.681Z,15.68
2019-05-21T12:17:04.768Z,20.70
2019-05-21T12:19:30.901Z,19.30
2019-05-21T12:21:57.004Z,19.40
2019-05-21T12:24:23.116Z,14.73
2019-05-21T12:26:49.328Z,14.47
2019-05-21T12:29:15.456Z,18.07
2019-05-21T12:31:41.732Z,16.30
2019-05-21T12:34:08.032Z,11.63
2019-05-21T12:36:34.383Z,15.83
2019-05-21T12:39:13.692Z,15.38
2019-05-21T12:41:28.605Z,14.28
2019-05-21T12:43:54.903Z,16.23
2019-05-21T12:46:21.025Z,11.57
2019-05-21T12:48:47.254Z,12.23
2019-05-21T12:51:13.484Z,11.40
2019-05-21T12:53:42.098Z,10.23
2019-05-21T12:56:08.370Z,12.25
2019-05-21T12:58:34.492Z,15.75
2019-05-21T13:01:00.779Z,11.73
2019-05-21T13:03:26.954Z,11.75
2019-05-21T13:05:53.183Z,12.58
2019-05-21T13:08:19.266Z,16.65
2019-05-21T13:10:45.505Z,11.57
2019-05-21T13:13:11.635Z,13.80
2019-05-21T13:15:37.765Z,14.23
2019-05-21T13:18:04.265Z,15.95
2019-05-21T13:20:31.647Z,13.93
2019-05-21T13:22:57.759Z,13.08
2019-05-21T13:25:24.344Z,13.00
2019-05-21T13:27:50.564Z,12.90
2019-05-21T13:30:17.379Z,18.80
2019-05-21T13:32:44.025Z,13.90
2019-05-21T13:35:10.688Z,15.13
2019-05-21T13:37:36.917Z,11.35
2019-05-21T13:40:08.402Z,10.68
2019-05-21T13:42:34.529Z,11.50
2019-05-21T13:45:04.358Z,10.90
2019-05-21T13:47:30.648Z,14.20
2019-05-21T13:49:56.853Z,10.20
2019-05-21T13:52:23.204Z,14.83
2019-05-21T13:54:49.379Z,13.38
2019-05-21T13:57:15.656Z,12.03
2019-05-21T13:59:42.053Z,11.90
2019-05-21T14:02:10.419Z,8.88
2019-05-21T14:04:36.942Z,10.10
2019-05-21T14:07:03.031Z,13.60
2019-05-21T14:09:29.169Z,15.15
2019-05-21T14:11:55.334Z,10.95
2019-05-21T14:14:21.645Z,12.33
2019-05-21T14:16:47.725Z,15.75
2019-05-21T14:19:14.110Z,14.15
2019-05-21T14:21:40.271Z,12.13
2019-05-21T14:24:06.591Z,16.93
2019-05-21T14:26:32.898Z,16.02
2019-05-21T14:28:59.056Z,9.83
2019-05-21T14:31:25.232Z,13.93
2019-05-21T14:33:51.339Z,11.85
2019-05-21T14:36:17.412Z,15.18
2019-05-21T14:38:43.524Z,14.47
2019-05-21T14:41:09.736Z,11.97
2019-05-21T14:43:35.957Z,11.33
2019-05-21T14:46:03.244Z,14.40
2019-05-21T14:48:29.444Z,16.65
2019-05-21T14:50:55.593Z,15.80
2019-05-21T14:53:21.781Z,13.62
2019-05-21T14:55:47.993Z,16.67
2019-05-21T14:58:14.174Z,15.38
2019-05-21T15:00:40.465Z,15.40
2019-05-21T15:03:06.540Z,17.42
2019-05-21T15:05:33.988Z,17.27
2019-05-21T15:08:00.176Z,18.00
2019-05-21T15:10:26.502Z,16.12
2019-05-21T15:12:52.703Z,14.68
2019-05-21T15:15:18.837Z,14.50
2019-05-21T15:17:45.027Z,20.12
2019-05-21T15:20:31.092Z,14.75
2019-05-21T15:22:57.306Z,16.37
2019-05-21T15:25:23.516Z,12.23
2019-05-21T15:27:49.744Z,12.70
2019-05-21T15:30:16.265Z,14.50
2019-05-21T15:32:42.367Z,14.53
2019-05-21T15:35:08.688Z,13.78
2019-05-21T15:37:34.910Z,19.23
2019-05-21T15:40:01.392Z,18.98
2019-05-21T15:42:27.589Z,15.72
2019-05-21T15:44:53.793Z,14.13
2019-05-21T15:47:19.896Z,20.92
2019-05-21T15:49:46.591Z,18.65
2019-05-21T15:52:12.866Z,14.15
2019-05-21T15:54:39.056Z,14.68
2019-05-21T15:57:05.176Z,13.43
2019-05-21T15:59:31.575Z,17.77
2019-05-21T16:01:57.738Z,13.78
2019-05-21T16:04:23.838Z,18.50
2019-05-21T16:06:50.041Z,15.18
2019-05-21T16:09:16.272Z,17.10
2019-05-21T16:11:42.448Z,14.50
2019-05-21T16:14:08.647Z,16.00
2019-05-21T16:16:34.982Z,21.62
2019-05-21T16:19:01.073Z,20.25
2019-05-21T16:21:27.279Z,17.85
2019-05-21T16:23:53.352Z,21.35
2019-05-21T16:26:23.525Z,23.92
2019-05-21T16:28:50.395Z,14.83
2019-05-21T16:31:16.656Z,15.25
2019-05-21T16:33:42.806Z,16.82
2019-05-21T16:36:08.973Z,18.95
2019-05-21T16:38:35.091Z,23.45
2019-05-21T16:41:01.168Z,14.40
2019-05-21T16:43:27.358Z,18.23
2019-05-21T16:45:53.459Z,19.62
2019-05-21T16:48:19.673Z,17.60
2019-05-21T16:50:45.755Z,15.00
2019-05-21T16:53:11.859Z,17.20
2019-05-21T16:55:37.961Z,17.15
2019-05-21T16:58:04.180Z,19.77
2019-05-21T17:00:31.157Z,14.98
2019-05-21T17:02:57.317Z,20.90
2019-05-21T17:05:23.519Z,19.48
2019-05-21T17:07:49.657Z,20.00
2019-05-21T17:10:17.870Z,21.40
2019-05-21T17:12:45.406Z,24.50
2019-05-21T17:15:12.134Z,14.63
2019-05-21T17:17:38.382Z,21.15
2019-05-21T17:20:06.792Z,23.50
2019-05-21T17:22:33.120Z,20.23
2019-05-21T17:24:59.333Z,20.43
2019-05-21T17:27:25.673Z,12.18
2019-05-21T17:29:51.788Z,16.02
2019-05-21T17:32:17.977Z,21.55
2019-05-21T17:34:44.119Z,21.12
2019-05-21T17:37:10.259Z,23.12
2019-05-21T17:39:36.438Z,18.82
2019-05-21T17:42:14.650Z,20.35
2019-05-21T17:44:30.778Z,19.95
2019-05-21T17:46:57.048Z,24.00
2019-05-21T17:49:23.710Z,19.55
2019-05-21T17:51:49.961Z,14.70
2019-05-21T17:54:16.047Z,15.83
2019-05-21T17:56:42.269Z,21.23
2019-05-21T17:59:08.473Z,19.65
2019-05-21T18:01:35.441Z,17.27
2019-05-21T18:04:03.824Z,22.13
2019-05-21T18:06:30.531Z,19.02
2019-05-21T18:08:57.044Z,18.42
2019-05-21T18:11:23.424Z,21.12
2019-05-21T18:13:49.919Z,25.65
2019-05-21T18:16:16.115Z,18.10
2019-05-21T18:18:43.517Z,18.32
2019-05-21T18:21:10.417Z,21.30
2019-05-21T18:23:37.038Z,22.90
2019-05-21T18:26:03.969Z,22.30
2019-05-21T18:28:30.438Z,24.80
2019-05-21T18:30:57.467Z,26.35
2019-05-21T18:33:23.742Z,19.57
2019-05-21T18:35:49.981Z,27.48
2019-05-21T18:38:16.439Z,24.80
2019-05-21T18:40:43.239Z,21.42
2019-05-21T18:43:09.524Z,19.20
2019-05-21T18:45:36.084Z,19.57
2019-05-21T18:48:02.281Z,20.90
2019-05-21T18:50:36.343Z,24.00
2019-05-21T18:52:57.647Z,18.30
2019-05-21T18:55:24.028Z,18.45
2019-05-21T18:57:50.245Z,19.42
2019-05-21T19:00:17.442Z,26.82
2019-05-21T19:02:44.066Z,31.33
2019-05-21T19:05:11.006Z,22.17
2019-05-21T19:07:37.922Z,25.17
2019-05-21T19:10:07.580Z,20.90
2019-05-21T19:12:38.233Z,18.17
2019-05-21T19:15:04.020Z,22.62
2019-05-21T19:17:35.722Z,22.52
2019-05-21T19:19:58.725Z,19.70
2019-05-21T19:22:27.529Z,25.50
2019-05-21T19:24:52.888Z,21.93
2019-05-21T19:27:19.084Z,20.20
2019-05-21T19:29:45.221Z,15.15
2019-05-21T19:32:11.443Z,22.02
2019-05-21T19:34:37.701Z,24.37
2019-05-21T19:37:04.040Z,27.60
2019-05-21T19:39:32.934Z,23.18
2019-05-21T19:41:59.120Z,29.50
2019-05-21T19:44:25.244Z,26.40
2019-05-21T19:46:51.713Z,26.75
2019-05-21T19:49:18.201Z,23.70
2019-05-21T19:51:44.386Z,34.55
2019-05-21T19:54:10.592Z,22.98
2019-05-21T19:56:36.987Z,19.85
2019-05-21T19:59:03.772Z,26.73
2019-05-21T20:01:29.921Z,38.00
2019-05-21T20:03:56.770Z,28.47
2019-05-21T20:06:23.667Z,29.18
2019-05-21T20:08:49.942Z,29.60
2019-05-21T20:11:16.883Z,23.90
2019-05-21T20:13:43.166Z,25.70
2019-05-21T20:16:10.264Z,29.57
2019-05-21T20:18:36.738Z,30.55
2019-05-21T20:21:03.944Z,29.50
2019-05-21T20:23:30.156Z,32.28
2019-05-21T20:25:57.112Z,40.70
2019-05-21T20:28:23.928Z,36.00
2019-05-21T20:30:50.348Z,35.40
2019-05-21T20:33:16.728Z,33.78
2019-05-21T20:35:44.008Z,28.23
2019-05-21T20:38:12.909Z,24.77
2019-05-21T20:40:39.528Z,23.18
2019-05-21T20:43:06.063Z,14.70
2019-05-21T20:45:34.089Z,19.48
2019-05-21T20:48:00.367Z,21.27
2019-05-21T20:50:26.891Z,19.10
2019-05-21T20:52:53.320Z,18.60
2019-05-21T20:55:19.929Z,18.40
2019-05-21T20:57:46.336Z,16.77
2019-05-21T21:00:15.352Z,15.10
2019-05-21T21:02:42.035Z,12.82
2019-05-21T21:05:09.458Z,10.40
2019-05-21T21:07:37.656Z,11.70
2019-05-21T21:10:08.212Z,13.28
2019-05-21T21:12:34.917Z,12.93
2019-05-21T21:15:01.731Z,16.65
2019-05-21T21:17:28.493Z,18.10
2019-05-21T21:19:54.998Z,20.68
2019-05-21T21:22:21.301Z,19.00
2019-05-21T21:24:47.627Z,14.33
2019-05-21T21:27:14.499Z,23.62
2019-05-21T21:29:40.823Z,21.15
2019-05-21T21:32:07.129Z,16.97
2019-05-21T21:34:33.811Z,22.60
2019-05-21T21:37:00.923Z,17.42
2019-05-21T21:39:27.119Z,14.73
2019-05-21T21:41:53.863Z,12.00
2019-05-21T21:44:33.443Z,21.37
2019-05-21T21:46:49.259Z,17.52
2019-05-21T21:49:17.289Z,16.17
2019-05-21T21:51:43.585Z,24.27
2019-05-21T21:54:10.789Z,27.40
2019-05-21T21:56:38.481Z,24.23
2019-05-21T21:59:04.712Z,14.58
2019-05-21T22:01:44.017Z,14.03
2019-05-21T22:04:12.103Z,29.85
2019-05-21T22:06:40.431Z,19.15
2019-05-21T22:09:10.292Z,19.77
2019-05-21T22:11:36.525Z,20.08
2019-05-21T22:14:05.280Z,15.70
2019-05-21T22:16:32.470Z,12.23
2019-05-21T22:18:58.800Z,12.40
2019-05-21T22:21:25.293Z,17.45
2019-05-21T22:23:52.177Z,15.05
2019-05-21T22:26:18.307Z,15.55
2019-05-21T22:28:44.710Z,14.83
2019-05-21T22:31:10.946Z,14.05
2019-05-21T22:33:37.488Z,9.70
2019-05-21T22:36:04.228Z,9.88
2019-05-21T22:38:32.334Z,13.40
2019-05-21T22:40:58.591Z,13.48
2019-05-21T22:43:25.683Z,12.18
2019-05-21T22:45:51.899Z,12.90
2019-05-21T22:48:18.084Z,12.82
2019-05-21T22:50:44.450Z,13.48
2019-05-21T22:53:10.646Z,9.28
2019-05-21T22:55:36.771Z,11.75
2019-05-21T22:58:03.356Z,11.48
2019-05-21T23:00:31.463Z,10.20
2019-05-21T23:02:57.854Z,10.30
2019-05-21T23:05:24.172Z,13.70
2019-05-21T23:07:50.303Z,12.88
2019-05-21T23:10:17.097Z,18.32
2019-05-21T23:12:43.226Z,19.57
2019-05-21T23:15:23.621Z,14.70
2019-05-21T23:17:38.582Z,15.80
2019-05-21T23:20:07.490Z,16.65
2019-05-21T23:22:35.175Z,17.95
2019-05-21T23:25:04.825Z,17.25
2019-05-21T23:27:31.428Z,17.75
2019-05-21T23:29:57.545Z,12.33
2019-05-21T23:32:24.248Z,22.50
2019-05-21T23:34:53.047Z,16.10
2019-05-21T23:37:23.629Z,15.68
2019-05-21T23:39:51.641Z,16.52
2019-05-21T23:42:28.953Z,14.98
2019-05-21T23:44:47.336Z,13.62
2019-05-21T23:47:15.433Z,15.50
2019-05-21T23:49:42.127Z,11.73
2019-05-21T23:52:08.350Z,11.97
2019-05-21T23:54:34.466Z,13.28
2019-05-21T23:57:03.166Z,14.33
2019-05-21T23:59:29.963Z,15.43
